AirNav   Everest Fuels
 
 441 users online  

0CO9 Van Treese Airport
Monte Vista, Colorado, USA

GOING TO MONTE VISTA?


FAA INFORMATION EFFECTIVE 22 APRIL 2021

Location

FAA Identifier: 0CO9
Lat/Long: 37-39-30.0040N 106-02-02.0880W
37-39.500067N 106-02.034800W
37.6583344,-106.0339133
(estimated)
Elevation: 7613 ft. / 2320.4 m (surveyed)
Variation: 12E (1985)
From city: 7 miles NE of MONTE VISTA, CO
Time zone: UTC -6 (UTC -7 during Standard Time)
Zip code: 81144

Airport Operations

Airport use: Private use. Permission required prior to landing
Control tower: no
ARTCC: DENVER CENTER
FSS: DENVER FLIGHT SERVICE STATION
Attendance: UNATNDD
Wind indicator: yes
Segmented circle: no

Airport Communications

WX AWOS-3PT at RCV (15 nm W): 118.275 (719-657-9017)
WX ASOS at ALS (16 nm SE): 135.175 (719-589-5669)

Nearby radio navigation aids

VOR radial/distance  VOR name  Freq  Var
ALSr318/21.3ALAMOSA VORTAC113.9013E

Airport Services

Airframe service: NONE
Powerplant service: NONE

Runway Information

Runway E/W

Dimensions: 2600 x 50 ft. / 792 x 15 m
Surface: gravel/dirt
RUNWAY E  RUNWAY W
Traffic pattern: leftleft
Obstructions: polepline

Airport Ownership and Management from official FAA records

Ownership: Privately-owned
Owner: STEVEN VAN TREESE
522 LANE 7 NORTH
MONTE VISTA, CO 81144
Phone (719) 852-2851
VTFARMS@GMAIL.COM
Manager: STEVEN VAN TREESE
522 LANE 7 NORTH
MONTE VISTA, CO 81144
Phone 719-852-2851

Airport Operational Statistics

Aircraft based on the field: 2
Single engine airplanes: 2
    

Additional Remarks

FOR CD CTC DENVER ARTCC AT 303-651-4257.

Instrument Procedures

There are no published instrument procedures at 0CO9.

Some nearby airports with instrument procedures:

KMVI - Monte Vista Municipal Airport (8 nm S)
KRCV - Astronaut Kent Rominger Airport (15 nm W)
KALS - San Luis Valley Regional Airport/Bergman Field (16 nm SE)
KANK - Salida Airport/Harriett Alexander Field (53 nm N)
KPSO - Stevens Field Airport (54 nm SW)
 
Loc | Ops | Rwys | IFR | FBO | Links
Com | Nav | Svcs | Stats | Notes

AirBoss

 
Area around 0CO9 (Van Treese Airport)
 
Road maps at: MapQuest Bing Google
 
Aerial photo
No photo
 
Sectional chart

 
Airport distance calculator
Flying to Van Treese Airport? Find the distance to fly.

From to 0CO9

Sunrise and sunset
Times for 09-May-2021
 Local
(UTC-6)
 Zulu
(UTC)
Morning civil twilight05:3211:32
Sunrise06:0112:01
Sunset20:0002:00
Evening civil twilight20:2902:29

Current date and time
Zulu (UTC)  09-May-2021 06:43:36
Local (UTC-6)  09-May-2021 00:43:36
 
METAR
KRCV 
15nm W 
090615Z AUTO 00000KT 10SM CLR 05/M07 A3003 RMK AO2 T00461066
KALS 
16nm SE 
090552Z AUTO 36006KT 10SM CLR 06/M04 A3001 RMK AO2 SLP088 T00611039 10156 20050 50010
K04V 
27nm N 
090615Z AUTO 00000KT 10SM CLR 06/M03 A3003 RMK AO2
TAF
KALS 
16nm SE 
090542Z 0906/1006 04006KT P6SM FEW110 SCT200 FM090700 10009KT P6SM FEW200 FM091100 19007KT P6SM FEW120 SCT200 FM091600 26020G30KT P6SM FEW060 SCT100 SCT200 FM100300 12013G23KT P6SM VCSH SCT040 BKN100 BKN200
NOTAMs
Click for the latest NOTAMs
NOTAMs are issued by the DoD/FAA and will open in a separate window not controlled by AirNav.

 

 
 

Would you like to see your business listed on this page?

 If your business provides an interesting product or service to pilots, flight crews, aircraft, or users of the Van Treese Airport, you should consider listing it here.  To start the listing process, click on the button below
 
Add a business
 

Other Pages about Van Treese Airport

Update a link
 
Copyright © AirNav, LLC. All rights reserved. Privacy Policy  Contact